Time,TemperatureF,DewpointF,PressureIn,WindDirection,WindDirectionDegrees,WindSpeedMPH,WindSpeedGustMPH,Humidity,HourlyPrecipIn,Conditions,Clouds,dailyrainin,SoftwareType,DateUTC
2013-06-21 00:00:00,76.1,70.9,29.67,SE,142,0.0,0.0,84,0.00,CLR,CLR,0.00,WeatherDisplay:10.37,2013-06-21 04:00:00,
2013-06-21 00:30:00,75.7,71.3,29.67,East,90,0.0,0.0,86,0.00,,,0.00,WeatherDisplay:10.37,2013-06-21 04:30:00,
2013-06-21 01:00:00,75.4,70.9,29.66,ESE,112,0.0,0.0,86,0.00,,,0.00,WeatherDisplay:10.37,2013-06-21 05:00:00,
2013-06-21 01:30:00,75.0,70.5,29.66,ESE,112,0.0,0.0,86,0.00,,,0.00,WeatherDisplay:10.37,2013-06-21 05:30:00,
2013-06-21 02:00:00,75.0,70.2,29.65,SSE,154,0.0,0.0,85,0.00,,,0.00,WeatherDisplay:10.37,2013-06-21 06:00:00,
2013-06-21 02:30:00,75.0,70.2,29.64,SSE,149,0.0,0.0,85,0.00,,,0.00,WeatherDisplay:10.37,2013-06-21 06:30:00,
2013-06-21 03:00:00,75.4,70.9,29.64,ESE,112,0.0,0.0,86,0.00,,,0.00,WeatherDisplay:10.37,2013-06-21 07:00:00,
2013-06-21 03:30:00,74.5,70.0,29.64,ESE,112,0.0,0.0,86,0.00,,,0.00,WeatherDisplay:10.37,2013-06-21 07:30:00,
2013-06-21 04:00:00,74.5,70.4,29.63,ESE,112,0.0,0.0,87,0.00,,,0.00,WeatherDisplay:10.37,2013-06-21 08:00:00,
2013-06-21 04:30:00,74.1,70.3,29.63,ESE,112,0.0,0.0,88,0.00,,,0.00,WeatherDisplay:10.37,2013-06-21 08:30:00,
2013-06-21 05:00:00,73.9,70.5,29.62,ESE,112,0.0,0.0,89,0.00,,,0.00,WeatherDisplay:10.37,2013-06-21 09:00:00,
2013-06-21 05:30:00,73.9,70.5,29.62,East,101,0.0,0.0,89,0.00,,,0.00,WeatherDisplay:10.37,2013-06-21 09:30:00,
2013-06-21 06:00:00,73.6,70.1,29.62,ESE,112,0.0,0.0,89,0.00,,,0.00,WeatherDisplay:10.37,2013-06-21 10:00:00,
2013-06-21 06:30:00,73.6,70.1,29.62,ESE,112,0.0,0.0,89,0.00,,,0.00,WeatherDisplay:10.37,2013-06-21 10:30:00,
2013-06-21 07:00:00,73.2,70.1,29.64,ESE,112,0.0,0.0,90,0.00,,,0.00,WeatherDisplay:10.37,2013-06-21 11:00:00,
2013-06-21 07:30:00,74.5,71.4,29.65,ESE,112,0.0,0.0,90,0.00,,,0.00,WeatherDisplay:10.37,2013-06-21 11:30:00,
2013-06-21 08:00:00,75.9,72.4,29.66,SE,130,0.0,0.0,89,0.00,,,0.00,WeatherDisplay:10.37,2013-06-21 12:00:00,
2013-06-21 08:30:00,78.1,72.8,29.65,ESE,121,0.0,0.0,84,0.00,CLR,CLR,0.00,WeatherDisplay:10.37,2013-06-21 12:30:00,
2013-06-21 09:00:00,79.9,72.8,29.66,SSE,153,0.0,0.0,79,0.00,CLR,CLR,0.00,WeatherDisplay:10.37,2013-06-21 13:00:00,
2013-06-21 09:30:00,82.0,74.1,29.68,SE,138,0.0,0.0,77,0.00,CLR,CLR,0.00,WeatherDisplay:10.37,2013-06-21 13:30:00,
2013-06-21 10:00:00,83.8,75.5,29.68,ESE,121,0.0,2.0,76,0.00,CLR,CLR,0.00,WeatherDisplay:10.37,2013-06-21 14:00:00,
2013-06-21 10:30:00,85.3,75.2,29.68,South,180,0.0,0.0,72,0.00,CLR,CLR,0.00,WeatherDisplay:10.37,2013-06-21 14:30:00,
2013-06-21 11:00:00,86.2,73.5,29.68,SW,228,0.0,0.0,66,0.00,CLR,CLR,0.00,WeatherDisplay:10.37,2013-06-21 15:00:00,
2013-06-21 11:30:00,88.5,73.8,29.68,West,271,0.0,0.0,62,0.00,CLR,CLR,0.00,WeatherDisplay:10.37,2013-06-21 15:30:00,
2013-06-21 12:00:00,89.4,72.7,29.68,SSW,202,0.0,2.0,58,0.00,CLR,CLR,0.00,WeatherDisplay:10.37,2013-06-21 16:00:00,
2013-06-21 12:30:00,88.9,72.7,29.67,WSW,244,0.0,2.0,59,0.00,CLR,CLR,0.00,WeatherDisplay:10.37,2013-06-21 16:30:00,
2013-06-21 13:00:00,89.8,73.0,29.68,SW,216,0.0,1.0,58,0.00,CLR,CLR,0.00,WeatherDisplay:10.37,2013-06-21 17:00:00,
2013-06-21 14:00:00,85.6,73.4,29.67,NNE,27,0.0,9.0,67,0.00,CLR,CLR,0.00,WeatherDisplay:10.37,2013-06-21 18:00:00,
2013-06-21 14:30:00,86.7,74.0,29.67,ESE,117,6.0,6.0,66,0.00,CLR,CLR,0.00,WeatherDisplay:10.37,2013-06-21 18:30:00,
2013-06-21 15:00:00,82.8,72.0,29.66,South,175,1.0,6.0,70,0.00,CLR,CLR,0.00,WeatherDisplay:10.37,2013-06-21 19:00:00,
2013-06-21 15:30:00,84.4,73.1,29.65,SSE,162,0.0,1.0,69,0.00,CLR,CLR,0.00,WeatherDisplay:10.37,2013-06-21 19:30:00,
2013-06-21 16:00:00,87.6,74.4,29.64,SE,137,0.0,2.0,65,0.00,CLR,CLR,0.00,WeatherDisplay:10.37,2013-06-21 20:00:00,
2013-06-21 16:30:00,88.5,73.3,29.65,SW,232,0.0,2.0,61,0.00,CLR,CLR,0.00,WeatherDisplay:10.37,2013-06-21 20:30:00,
2013-06-21 17:00:00,87.6,73.9,29.65,WSW,258,0.0,2.0,64,0.00,CLR,CLR,0.00,WeatherDisplay:10.37,2013-06-21 21:00:00,
2013-06-21 17:30:00,90.0,73.7,29.64,WSW,254,0.0,0.0,59,0.00,CLR,CLR,0.00,WeatherDisplay:10.37,2013-06-21 21:30:00,
2013-06-21 18:00:00,89.1,73.4,29.65,West,263,0.0,0.0,60,0.00,CLR,CLR,0.00,WeatherDisplay:10.37,2013-06-21 22:00:00,
2013-06-21 18:30:00,82.8,72.0,29.66,East,82,3.0,7.0,70,0.00,CLR,CLR,0.00,WeatherDisplay:10.37,2013-06-21 22:30:00,
2013-06-21 19:00:00,83.1,72.7,29.66,ENE,64,0.0,4.0,71,0.00,CLR,CLR,0.00,WeatherDisplay:10.37,2013-06-21 23:00:00,
2013-06-21 19:30:00,82.2,70.6,29.65,ENE,63,0.0,6.0,68,0.00,CLR,CLR,0.00,WeatherDisplay:10.37,2013-06-21 23:30:00,
2013-06-21 20:00:00,80.8,70.1,29.66,NE,47,0.0,2.0,70,0.00,CLR,CLR,0.00,WeatherDisplay:10.37,2013-06-22 00:00:00,
2013-06-21 20:30:00,79.5,69.7,29.66,East,92,0.0,4.0,72,0.00,CLR,CLR,0.00,WeatherDisplay:10.37,2013-06-22 00:30:00,
2013-06-21 21:00:00,79.3,69.9,29.67,ENE,77,0.0,0.0,73,0.00,CLR,CLR,0.00,WeatherDisplay:10.37,2013-06-22 01:00:00,
2013-06-21 21:30:00,78.6,70.4,29.68,ENE,74,0.0,0.0,76,0.00,CLR,CLR,0.00,WeatherDisplay:10.37,2013-06-22 01:30:00,
2013-06-21 22:00:00,77.5,70.9,29.68,NE,54,0.0,3.0,80,0.00,CLR,CLR,0.00,WeatherDisplay:10.37,2013-06-22 02:00:00,
2013-06-21 22:30:00,76.6,70.4,29.68,ESE,103,0.0,0.0,81,0.00,CLR,CLR,0.00,WeatherDisplay:10.37,2013-06-22 02:30:00,
2013-06-21 23:00:00,76.1,70.2,29.69,East,94,0.0,2.0,82,0.00,CLR,CLR,0.00,WeatherDisplay:10.37,2013-06-22 03:00:00,
2013-06-21 23:30:00,75.6,70.0,29.68,ESE,105,0.0,0.0,83,0.00,CLR,CLR,0.00,WeatherDisplay:10.37,2013-06-22 03:30:00,